Time;durP1;ratioP1;P1;durP2;ratioP2;P2;SDS_P1;SDS_P2;PMS_P1;PMS_P2;Temp;Humidity;BMP_temperature;BMP_pressure;BME280_temperature;BME280_humidity;BME280_pressure;Samples;Min_cycle;Max_cycle;Signal;HPM_P1;HPM_P2
2023/04/06 00:00:47;;;;;;;1.30;0.80;;;3.90;69.00;;;;;;5093781;28;20053;-70
2023/04/06 00:03:13;;;;;;;0.77;0.70;;;3.80;69.00;;;;;;5111902;28;20052;-69
2023/04/06 00:05:39;;;;;;;1.48;0.73;;;3.90;69.10;;;;;;5092395;28;20064;-69
2023/04/06 00:08:05;;;;;;;1.02;0.73;;;3.90;69.10;;;;;;5093937;28;20127;-69
2023/04/06 00:10:30;;;;;;;1.23;0.90;;;3.80;69.10;;;;;;5112366;28;20023;-69
2023/04/06 00:12:57;;;;;;;1.20;0.90;;;3.80;69.20;;;;;;5112220;28;20043;-69
2023/04/06 00:15:22;;;;;;;0.85;0.70;;;3.80;69.20;;;;;;5111839;28;20058;-70
2023/04/06 00:17:48;;;;;;;0.70;0.60;;;3.80;69.20;;;;;;5112045;28;20048;-69
2023/04/06 00:20:15;;;;;;;1.27;0.88;;;3.80;69.20;;;;;;5112431;28;20122;-69
2023/04/06 00:22:41;;;;;;;1.10;0.70;;;3.80;69.30;;;;;;5111767;28;20047;-69
2023/04/06 00:25:06;;;;;;;1.15;0.70;;;3.80;69.40;;;;;;5111653;28;20059;-69
2023/04/06 00:27:32;;;;;;;1.13;0.70;;;3.70;69.30;;;;;;5111694;28;20613;-69
2023/04/06 00:29:58;;;;;;;1.45;0.80;;;3.70;69.40;;;;;;5112179;28;20047;-70
2023/04/06 00:32:23;;;;;;;0.60;0.60;;;3.70;69.50;;;;;;5111346;28;20421;-69
2023/04/06 00:34:49;;;;;;;1.25;0.85;;;3.70;69.50;;;;;;5111584;28;20040;-69
2023/04/06 00:37:15;;;;;;;1.02;0.80;;;3.60;69.60;;;;;;5093661;28;20032;-69
2023/04/06 00:39:40;;;;;;;0.90;0.60;;;3.60;69.70;;;;;;5093357;28;20397;-70
2023/04/06 00:42:13;;;;;;;1.08;0.63;;;3.50;69.70;;;;;;5092429;28;20372;-69
2023/04/06 00:44:40;;;;;;;0.73;0.70;;;3.60;69.80;;;;;;5093840;28;20054;-69
2023/04/06 00:47:06;;;;;;;0.65;0.50;;;3.50;69.80;;;;;;5111677;28;20044;-69
2023/04/06 00:49:33;;;;;;;0.75;0.55;;;3.50;69.80;;;;;;5111471;28;20031;-69
2023/04/06 00:51:58;;;;;;;0.70;0.50;;;3.50;70.00;;;;;;5111872;28;20046;-69
2023/04/06 00:54:24;;;;;;;1.10;0.55;;;3.50;70.00;;;;;;5111312;28;20134;-69
2023/04/06 00:56:50;;;;;;;1.10;0.57;;;3.50;70.20;;;;;;5111336;28;20085;-69
2023/04/06 00:59:16;;;;;;;1.13;0.80;;;3.40;70.20;;;;;;5113162;28;20388;-69
2023/04/06 01:01:41;;;;;;;1.02;0.70;;;3.30;70.20;;;;;;5114804;28;20042;-69
2023/04/06 01:04:07;;;;;;;1.00;0.60;;;3.30;70.40;;;;;;5114942;28;20040;-69
2023/04/06 01:06:33;;;;;;;0.50;0.50;;;3.40;70.50;;;;;;5115179;28;20063;-69
2023/04/06 01:08:58;;;;;;;0.65;0.60;;;3.40;70.50;;;;;;5114668;28;20530;-69
2023/04/06 01:11:24;;;;;;;1.48;0.80;;;3.30;70.50;;;;;;5114609;28;20078;-69
2023/04/06 01:13:50;;;;;;;0.60;0.47;;;3.30;70.50;;;;;;5115070;28;20067;-69
2023/04/06 01:16:16;;;;;;;1.13;0.60;;;3.30;70.50;;;;;;5096919;28;20399;-69
2023/04/06 01:18:42;;;;;;;0.70;0.70;;;3.30;70.50;;;;;;5115046;28;20144;-69
2023/04/06 01:21:08;;;;;;;0.90;0.70;;;3.30;70.50;;;;;;5114636;28;20440;-69
2023/04/06 01:23:35;;;;;;;1.00;0.73;;;3.30;70.50;;;;;;5115187;28;20065;-69
2023/04/06 01:26:00;;;;;;;0.90;0.60;;;3.30;70.60;;;;;;5114446;28;20085;-69
2023/04/06 01:28:26;;;;;;;0.60;0.50;;;3.20;70.70;;;;;;5096705;28;20429;-69
2023/04/06 01:30:51;;;;;;;1.02;0.60;;;3.20;70.80;;;;;;5114410;28;20085;-69
2023/04/06 01:33:17;;;;;;;1.95;0.90;;;3.20;70.90;;;;;;5114846;28;20134;-69
2023/04/06 01:35:43;;;;;;;0.98;0.70;;;3.10;71.00;;;;;;5114386;28;20952;-69
2023/04/06 01:38:08;;;;;;;0.80;0.63;;;3.10;71.10;;;;;;5114411;28;20122;-69
2023/04/06 01:40:34;;;;;;;1.40;0.70;;;3.00;71.10;;;;;;5114324;28;20040;-69
2023/04/06 01:43:00;;;;;;;0.88;0.68;;;3.00;71.80;;;;;;5114065;28;20032;-69
2023/04/06 01:45:25;;;;;;;1.05;0.80;;;3.00;71.20;;;;;;5114026;28;20043;-69
2023/04/06 01:47:51;;;;;;;0.60;0.60;;;3.00;71.30;;;;;;5114179;28;20035;-69
2023/04/06 01:50:17;;;;;;;0.73;0.70;;;3.00;71.40;;;;;;5095819;28;20035;-69
2023/04/06 01:52:42;;;;;;;0.60;0.50;;;2.90;71.40;;;;;;5114184;28;20036;-69
2023/04/06 01:55:08;;;;;;;0.70;0.68;;;2.90;71.50;;;;;;5114200;28;20040;-69
2023/04/06 01:57:34;;;;;;;0.75;0.68;;;2.90;71.60;;;;;;5114642;28;20555;-69
2023/04/06 02:00:00;;;;;;;0.63;0.50;;;2.80;71.60;;;;;;5095861;28;20035;-69
2023/04/06 02:02:26;;;;;;;0.68;0.63;;;2.80;71.70;;;;;;5114156;28;20115;-69
2023/04/06 02:04:51;;;;;;;1.10;0.70;;;2.80;71.70;;;;;;5114212;28;20059;-69
2023/04/06 02:07:17;;;;;;;1.13;0.70;;;2.80;71.80;;;;;;5114155;28;20450;-69
2023/04/06 02:09:42;;;;;;;0.40;0.40;;;2.80;71.80;;;;;;5114033;28;20047;-69
2023/04/06 02:12:08;;;;;;;0.73;0.50;;;2.70;71.80;;;;;;5095596;28;20482;-69
2023/04/06 02:14:34;;;;;;;0.40;0.40;;;2.70;71.80;;;;;;5095119;28;20043;-69
2023/04/06 02:16:59;;;;;;;0.88;0.63;;;2.70;71.80;;;;;;5114097;28;20047;-69
2023/04/06 02:19:25;;;;;;;0.60;0.50;;;2.80;71.80;;;;;;5095568;28;20040;-69
2023/04/06 02:21:51;;;;;;;0.98;0.60;;;2.80;71.70;;;;;;5095334;28;20048;-69
2023/04/06 02:24:17;;;;;;;0.70;0.57;;;2.80;71.70;;;;;;5113623;28;20065;-70
2023/04/06 02:26:42;;;;;;;0.90;0.50;;;2.80;71.70;;;;;;5095190;28;20481;-69
2023/04/06 02:29:08;;;;;;;0.65;0.57;;;2.90;71.70;;;;;;5095265;28;20032;-69
2023/04/06 02:31:33;;;;;;;1.50;0.80;;;2.80;71.70;;;;;;5077654;28;20421;-69
2023/04/06 02:33:59;;;;;;;0.55;0.40;;;2.80;71.70;;;;;;5113603;28;20118;-69
2023/04/06 02:36:25;;;;;;;0.85;0.60;;;2.70;71.70;;;;;;5113692;28;20505;-70
2023/04/06 02:38:51;;;;;;;0.75;0.60;;;2.80;71.70;;;;;;5113451;28;20040;-69
2023/04/06 02:41:17;;;;;;;0.70;0.68;;;2.80;71.70;;;;;;5113299;28;20044;-69
2023/04/06 02:43:42;;;;;;;0.85;0.63;;;2.90;71.70;;;;;;5113278;28;20046;-69
2023/04/06 02:46:08;;;;;;;1.20;0.70;;;2.80;71.70;;;;;;5113499;28;20130;-69
2023/04/06 02:48:36;;;;;;;0.52;0.50;;;2.80;71.70;;;;;;5094928;28;20036;-69
2023/04/06 02:51:01;;;;;;;0.95;0.60;;;2.90;71.80;;;;;;5113168;28;20036;-69
2023/04/06 02:53:27;;;;;;;0.73;0.57;;;2.90;71.70;;;;;;5077971;28;20035;-69
2023/04/06 02:55:53;;;;;;;0.50;0.50;;;3.00;71.80;;;;;;5113530;28;20047;-69
2023/04/06 02:58:19;;;;;;;1.05;0.70;;;2.90;71.70;;;;;;5113499;28;20040;-69
2023/04/06 03:00:45;;;;;;;0.82;0.63;;;2.90;71.70;;;;;;5112946;28;20495;-69
2023/04/06 03:03:10;;;;;;;0.77;0.60;;;2.90;71.70;;;;;;5112997;28;20035;-69
2023/04/06 03:05:36;;;;;;;1.10;0.80;;;2.90;71.70;;;;;;5112789;28;20101;-69
2023/04/06 03:08:01;;;;;;;1.25;0.75;;;2.90;71.70;;;;;;5112806;28;20044;-69
2023/04/06 03:10:27;;;;;;;0.68;0.60;;;3.00;71.70;;;;;;5113241;28;20123;-69
2023/04/06 03:12:53;;;;;;;1.10;0.73;;;3.00;71.70;;;;;;5112917;28;20449;-69
2023/04/06 03:15:18;;;;;;;0.90;0.52;;;3.00;71.60;;;;;;5112887;28;20043;-69
2023/04/06 03:17:44;;;;;;;1.10;0.73;;;3.00;71.60;;;;;;5113063;28;20039;-69
2023/04/06 03:20:10;;;;;;;1.02;0.60;;;3.10;71.70;;;;;;5094784;28;20428;-69
2023/04/06 03:22:35;;;;;;;0.98;0.70;;;3.00;71.60;;;;;;5112451;28;20126;-69
2023/04/06 03:25:01;;;;;;;0.60;0.50;;;3.10;71.60;;;;;;5112565;28;20486;-69
2023/04/06 03:27:27;;;;;;;1.55;0.80;;;3.10;71.60;;;;;;5112702;28;20439;-69
2023/04/06 03:29:52;;;;;;;0.52;0.52;;;3.10;71.60;;;;;;5112917;28;20035;-69
2023/04/06 03:32:18;;;;;;;1.02;0.52;;;3.10;71.50;;;;;;5112722;28;20036;-69
2023/04/06 03:34:43;;;;;;;0.85;0.50;;;3.20;71.60;;;;;;5112497;28;20115;-69
2023/04/06 03:37:09;;;;;;;0.95;0.60;;;3.20;71.60;;;;;;5112453;28;20055;-69
2023/04/06 03:39:35;;;;;;;2.50;0.80;;;3.20;71.60;;;;;;5094260;28;20047;-69
2023/04/06 03:42:00;;;;;;;1.08;0.60;;;3.20;71.60;;;;;;5112304;28;20035;-69
2023/04/06 03:44:26;;;;;;;0.70;0.60;;;3.20;71.60;;;;;;5093997;28;20109;-69
2023/04/06 03:46:51;;;;;;;0.85;0.60;;;3.20;71.60;;;;;;5112376;28;20074;-70
2023/04/06 03:49:17;;;;;;;0.55;0.50;;;3.20;71.60;;;;;;5112319;28;20119;-69
2023/04/06 03:51:43;;;;;;;0.85;0.47;;;3.30;71.70;;;;;;5112185;28;20508;-69
2023/04/06 03:54:08;;;;;;;0.45;0.45;;;3.30;72.30;;;;;;5093023;28;20403;-69
2023/04/06 03:56:34;;;;;;;1.30;0.80;;;3.30;71.70;;;;;;5112602;28;20089;-69
2023/04/06 03:59:00;;;;;;;0.50;0.50;;;3.30;71.70;;;;;;5112213;28;20047;-69
2023/04/06 04:01:25;;;;;;;1.45;0.73;;;3.30;71.70;;;;;;5094668;28;20032;-69
2023/04/06 04:03:52;;;;;;;1.48;0.70;;;3.30;71.70;;;;;;5094707;28;20089;-69
2023/04/06 04:06:17;;;;;;;0.93;0.63;;;3.40;71.70;;;;;;5112760;28;20088;-69
2023/04/06 04:08:43;;;;;;;1.17;0.70;;;3.30;71.70;;;;;;5112690;28;20122;-69
2023/04/06 04:11:08;;;;;;;0.75;0.60;;;3.30;71.70;;;;;;5094658;28;20040;-69
2023/04/06 04:13:34;;;;;;;1.77;0.85;;;3.40;71.70;;;;;;5092390;28;20471;-69
2023/04/06 04:16:00;;;;;;;1.40;0.80;;;3.30;71.70;;;;;;5112290;28;20035;-69
2023/04/06 04:18:25;;;;;;;1.48;0.85;;;3.40;71.70;;;;;;5112537;28;20039;-69
2023/04/06 04:20:51;;;;;;;1.52;0.98;;;3.40;71.70;;;;;;5094020;28;20043;-69
2023/04/06 04:23:16;;;;;;;1.13;0.70;;;3.40;71.70;;;;;;5094372;28;20043;-69
2023/04/06 04:25:43;;;;;;;2.42;0.93;;;3.40;71.70;;;;;;5112074;28;20070;-69
2023/04/06 04:28:09;;;;;;;0.77;0.70;;;3.50;71.80;;;;;;5092416;28;20047;-69
2023/04/06 04:30:35;;;;;;;0.73;0.68;;;3.50;71.70;;;;;;5111959;28;20040;-69
2023/04/06 04:33:00;;;;;;;0.95;0.68;;;3.50;71.70;;;;;;5112600;28;20089;-69
2023/04/06 04:35:26;;;;;;;0.80;0.80;;;3.40;71.70;;;;;;5115105;28;20039;-69
2023/04/06 04:37:52;;;;;;;1.60;0.70;;;3.40;71.80;;;;;;5116132;28;20118;-69
2023/04/06 04:40:18;;;;;;;1.17;0.70;;;3.50;71.90;;;;;;5115876;28;20130;-69
2023/04/06 04:42:43;;;;;;;1.25;0.80;;;3.50;71.90;;;;;;5115553;28;20479;-69
2023/04/06 04:45:09;;;;;;;1.15;0.77;;;3.50;71.90;;;;;;5115411;28;20046;-69
2023/04/06 04:47:37;;;;;;;1.15;0.90;;;3.50;71.90;;;;;;5115568;28;20519;-69
2023/04/06 04:50:03;;;;;;;1.63;1.00;;;3.50;72.00;;;;;;5097630;28;20031;-69
2023/04/06 04:52:29;;;;;;;1.30;0.70;;;3.60;72.00;;;;;;5096059;28;20047;-69
2023/04/06 04:54:54;;;;;;;2.20;0.80;;;3.50;72.00;;;;;;5115907;28;20524;-70
2023/04/06 04:57:22;;;;;;;0.85;0.75;;;3.60;72.00;;;;;;5115361;28;20034;-70
2023/04/06 04:59:49;;;;;;;1.10;0.65;;;3.50;72.00;;;;;;5097017;28;20078;-70
2023/04/06 05:02:14;;;;;;;1.55;0.80;;;3.50;72.00;;;;;;5115345;28;20073;-67
2023/04/06 05:04:40;;;;;;;1.50;0.90;;;3.60;72.10;;;;;;5094929;28;20036;-70
2023/04/06 05:07:08;;;;;;;0.93;0.70;;;3.60;72.00;;;;;;5114896;28;20505;-69
2023/04/06 05:09:33;;;;;;;0.80;0.70;;;3.50;72.00;;;;;;5115250;28;20118;-69
2023/04/06 05:12:00;;;;;;;1.88;0.90;;;3.60;72.00;;;;;;5114855;28;20458;-69
2023/04/06 05:14:26;;;;;;;0.85;0.50;;;3.60;72.10;;;;;;5115062;28;20032;-68
2023/04/06 05:16:52;;;;;;;0.70;0.50;;;3.60;72.10;;;;;;5115120;28;20096;-68
2023/04/06 05:19:17;;;;;;;1.60;0.90;;;3.60;72.10;;;;;;5114900;28;20043;-68
2023/04/06 05:21:43;;;;;;;1.23;0.80;;;3.60;72.20;;;;;;5112888;28;20036;-68
2023/04/06 05:24:09;;;;;;;1.52;1.00;;;3.70;72.20;;;;;;5096108;28;20054;-68
2023/04/06 05:26:34;;;;;;;1.02;0.70;;;3.60;72.10;;;;;;5114744;28;20063;-69
2023/04/06 05:29:00;;;;;;;1.55;0.70;;;3.70;72.20;;;;;;5114963;28;20046;-69
2023/04/06 05:31:26;;;;;;;1.70;0.82;;;3.70;72.10;;;;;;5114612;28;20506;-69
2023/04/06 05:33:52;;;;;;;1.70;0.90;;;3.70;72.10;;;;;;5114993;28;20040;-69
2023/04/06 05:36:18;;;;;;;1.13;0.65;;;3.80;72.20;;;;;;5115067;28;20044;-69
2023/04/06 05:38:43;;;;;;;1.52;0.85;;;3.70;72.00;;;;;;5114588;28;20149;-69
2023/04/06 05:41:09;;;;;;;1.17;0.60;;;3.80;72.10;;;;;;5095414;28;20039;-69
2023/04/06 05:43:35;;;;;;;1.45;0.70;;;3.80;72.00;;;;;;5114544;28;20040;-69
2023/04/06 05:46:00;;;;;;;1.00;0.68;;;3.90;72.00;;;;;;5113970;28;20036;-68
2023/04/06 05:48:26;;;;;;;0.95;0.65;;;3.90;71.90;;;;;;5114342;28;20035;-69
2023/04/06 05:50:51;;;;;;;1.48;0.90;;;4.00;71.90;;;;;;5114240;28;20448;-69
2023/04/06 05:53:17;;;;;;;1.90;0.77;;;4.10;71.80;;;;;;5114746;28;20046;-69
2023/04/06 05:55:43;;;;;;;0.90;0.73;;;4.10;71.80;;;;;;5096007;28;20555;-68
2023/04/06 05:58:09;;;;;;;1.52;0.90;;;4.10;71.70;;;;;;5114867;28;20406;-68
2023/04/06 06:00:35;;;;;;;0.68;0.63;;;4.20;71.60;;;;;;5114861;28;20039;-69
2023/04/06 06:03:03;;;;;;;0.93;0.70;;;4.30;71.40;;;;;;5114185;28;20847;-69
2023/04/06 06:05:30;;;;;;;1.80;1.02;;;4.40;71.40;;;;;;5114153;28;20063;-68
2023/04/06 06:07:55;;;;;;;1.52;0.90;;;4.40;71.30;;;;;;5114455;28;20047;-69
2023/04/06 06:10:21;;;;;;;1.40;0.93;;;4.50;71.20;;;;;;5114422;28;20043;-69
2023/04/06 06:12:47;;;;;;;2.03;0.93;;;4.50;71.10;;;;;;5114349;28;20038;-70
2023/04/06 06:15:12;;;;;;;1.13;0.80;;;4.70;71.20;;;;;;5114482;28;20040;-70
2023/04/06 06:17:38;;;;;;;2.78;1.10;;;4.70;71.00;;;;;;5113894;28;20039;-69
2023/04/06 06:20:06;;;;;;;3.05;1.38;;;4.80;70.90;;;;;;5113731;28;20036;-70
2023/04/06 06:22:32;;;;;;;3.13;1.45;;;4.80;70.70;;;;;;5114071;28;20430;-70
2023/04/06 06:24:57;;;;;;;1.98;1.13;;;4.90;70.50;;;;;;5114114;28;20044;-70
2023/04/06 06:27:23;;;;;;;1.67;0.95;;;5.00;70.40;;;;;;5113735;28;20039;-70
2023/04/06 06:29:48;;;;;;;1.20;0.90;;;5.10;70.40;;;;;;5113611;28;20456;-70
2023/04/06 06:32:14;;;;;;;1.48;1.00;;;5.10;70.30;;;;;;5093864;28;20036;-70
2023/04/06 06:34:40;;;;;;;1.73;1.10;;;5.20;70.20;;;;;;5095313;28;20082;-70
2023/04/06 06:37:06;;;;;;;1.48;1.05;;;5.30;70.10;;;;;;5094785;28;20411;-70
2023/04/06 06:39:31;;;;;;;1.80;1.10;;;5.40;70.00;;;;;;5114122;28;20039;-70
2023/04/06 06:42:00;;;;;;;1.98;1.30;;;5.50;69.90;;;;;;5114013;28;20046;-70
2023/04/06 06:44:26;;;;;;;1.65;1.13;;;5.70;70.50;;;;;;5113935;28;20062;-69
2023/04/06 06:46:52;;;;;;;2.20;1.20;;;5.70;69.60;;;;;;5114016;28;20035;-70
2023/04/06 06:49:18;;;;;;;1.48;0.90;;;5.90;69.50;;;;;;5113500;28;20036;-70
2023/04/06 06:51:44;;;;;;;2.03;1.10;;;6.00;70.00;;;;;;5113479;28;20093;-69
2023/04/06 06:54:09;;;;;;;3.15;1.25;;;6.10;69.30;;;;;;5113627;28;20035;-70
2023/04/06 06:56:37;;;;;;;1.50;0.95;;;6.20;69.20;;;;;;5094316;28;20078;-70
2023/04/06 06:59:03;;;;;;;2.45;1.10;;;6.40;69.10;;;;;;5113273;28;20040;-70
2023/04/06 07:01:29;;;;;;;1.85;1.27;;;6.40;69.00;;;;;;5094704;28;20036;-70
2023/04/06 07:03:55;;;;;;;2.22;1.30;;;6.50;68.90;;;;;;5094189;28;20514;-70
2023/04/06 07:06:20;;;;;;;2.35;1.30;;;6.50;68.80;;;;;;5093463;28;20123;-67
2023/04/06 07:08:46;;;;;;;2.13;1.30;;;6.60;68.80;;;;;;5113307;28;20040;-70
2023/04/06 07:11:12;;;;;;;1.10;0.90;;;6.60;68.80;;;;;;5113102;28;20050;-70
2023/04/06 07:13:37;;;;;;;1.10;0.90;;;6.70;68.80;;;;;;5094954;28;20505;-70
2023/04/06 07:16:03;;;;;;;1.10;0.80;;;6.80;69.50;;;;;;5113549;28;20505;-69
2023/04/06 07:18:29;;;;;;;2.33;1.40;;;6.80;68.80;;;;;;5094257;28;20053;-69
2023/04/06 07:20:55;;;;;;;2.28;1.27;;;6.90;68.80;;;;;;5112973;28;20036;-69
2023/04/06 07:23:20;;;;;;;1.88;1.10;;;7.00;68.70;;;;;;5113150;28;20054;-69
2023/04/06 07:25:46;;;;;;;1.88;1.17;;;7.10;68.60;;;;;;5112770;28;20096;-69
2023/04/06 07:28:12;;;;;;;2.17;1.15;;;7.20;68.50;;;;;;5113170;28;20118;-69
2023/04/06 07:30:38;;;;;;;2.63;1.30;;;7.20;68.40;;;;;;5093439;28;20126;-69
2023/04/06 07:33:05;;;;;;;3.05;1.35;;;7.30;68.40;;;;;;5112764;28;20063;-69
2023/04/06 07:35:31;;;;;;;2.17;1.30;;;7.40;68.30;;;;;;5112753;28;20050;-69
2023/04/06 07:37:57;;;;;;;2.42;1.38;;;7.60;68.30;;;;;;5094743;28;20491;-69
2023/04/06 07:40:23;;;;;;;1.70;1.02;;;7.70;68.20;;;;;;5112853;28;20035;-69
2023/04/06 07:42:48;;;;;;;2.15;1.27;;;7.70;68.00;;;;;;5113017;28;20051;-69
2023/04/06 07:45:15;;;;;;;1.48;1.17;;;7.90;68.00;;;;;;5112699;28;20177;-69
2023/04/06 07:47:41;;;;;;;1.92;1.20;;;8.00;68.00;;;;;;5112604;28;20126;-69
2023/04/06 07:50:07;;;;;;;1.92;1.00;;;8.00;67.90;;;;;;5112556;28;20143;-69
2023/04/06 07:52:33;;;;;;;1.70;1.17;;;8.10;67.90;;;;;;5112630;28;20036;-70
2023/04/06 07:54:59;;;;;;;2.20;1.20;;;8.10;68.00;;;;;;5112640;28;20051;-69
2023/04/06 07:57:25;;;;;;;1.92;1.17;;;8.20;68.10;;;;;;5112707;28;20151;-70
2023/04/06 07:59:50;;;;;;;1.40;1.00;;;8.10;68.00;;;;;;5112615;28;20547;-69
2023/04/06 08:02:16;;;;;;;2.17;1.20;;;8.30;68.10;;;;;;5113038;28;20036;-69
2023/04/06 08:04:43;;;;;;;2.17;1.08;;;8.30;68.10;;;;;;5113046;28;20479;-70
2023/04/06 08:07:08;;;;;;;1.38;1.10;;;8.30;68.00;;;;;;5112796;28;20052;-69
2023/04/06 08:09:34;;;;;;;2.35;1.17;;;8.30;68.00;;;;;;5096220;28;20044;-70
2023/04/06 08:12:00;;;;;;;2.45;0.90;;;8.40;68.10;;;;;;5116387;28;20104;-69
2023/04/06 08:14:27;;;;;;;1.30;0.93;;;8.40;68.10;;;;;;5116011;28;20486;-69
2023/04/06 08:16:52;;;;;;;1.67;1.15;;;8.50;68.10;;;;;;5115893;28;20061;-69
2023/04/06 08:19:18;;;;;;;3.00;1.50;;;8.60;68.10;;;;;;5116033;28;20039;-69
2023/04/06 08:21:45;;;;;;;2.63;1.40;;;8.60;68.00;;;;;;5116347;28;20070;-69
2023/04/06 08:24:11;;;;;;;1.63;1.00;;;8.70;68.00;;;;;;5116296;28;20032;-69
2023/04/06 08:26:37;;;;;;;1.67;1.10;;;8.80;68.00;;;;;;5115671;28;20044;-69
2023/04/06 08:29:03;;;;;;;2.47;1.20;;;8.80;67.90;;;;;;5115559;28;20035;-69
2023/04/06 08:31:30;;;;;;;2.45;1.38;;;8.90;67.90;;;;;;5097009;28;20047;-69
2023/04/06 08:33:56;;;;;;;1.48;1.08;;;8.90;67.70;;;;;;5097902;28;20039;-69
2023/04/06 08:36:22;;;;;;;2.58;1.30;;;9.10;67.80;;;;;;5078720;28;20414;-69
2023/04/06 08:38:49;;;;;;;1.80;1.15;;;9.10;67.70;;;;;;5080418;28;20398;-69
2023/04/06 08:41:17;;;;;;;3.10;1.45;;;9.20;67.60;;;;;;5115663;28;20094;-69
2023/04/06 08:43:47;;;;;;;2.15;1.25;;;9.30;67.50;;;;;;5115484;28;20506;-70
2023/04/06 08:46:13;;;;;;;1.80;1.17;;;9.40;67.40;;;;;;5115506;28;20165;-69
2023/04/06 08:48:41;;;;;;;1.80;1.10;;;9.50;67.40;;;;;;5115696;28;20036;-69
2023/04/06 08:51:07;;;;;;;3.22;1.30;;;9.60;67.30;;;;;;5080852;28;20153;-69
2023/04/06 08:53:33;;;;;;;1.80;1.17;;;9.60;67.20;;;;;;5115220;28;20039;-69
2023/04/06 08:56:00;;;;;;;2.50;1.40;;;9.70;67.30;;;;;;5115626;28;20504;-70
2023/04/06 08:58:30;;;;;;;1.48;1.10;;;9.80;67.20;;;;;;5115928;28;20044;-69
2023/04/06 09:00:56;;;;;;;2.47;1.33;;;9.90;67.10;;;;;;5095752;28;20058;-70
2023/04/06 09:03:23;;;;;;;2.10;1.20;;;10.00;67.10;;;;;;5115173;28;20040;-70
2023/04/06 09:05:49;;;;;;;1.60;1.02;;;10.20;67.00;;;;;;5115312;28;20047;-69
2023/04/06 09:08:15;;;;;;;1.88;1.27;;;10.30;66.90;;;;;;5115169;28;20035;-69
2023/04/06 09:10:41;;;;;;;1.77;1.20;;;10.40;66.70;;;;;;5115416;28;20590;-70
2023/04/06 09:13:08;;;;;;;2.38;1.40;;;10.50;66.50;;;;;;5115023;28;20051;-70
2023/04/06 09:15:34;;;;;;;2.42;1.58;;;10.60;67.00;;;;;;5114952;28;20048;-69
2023/04/06 09:18:01;;;;;;;3.40;1.90;;;10.60;66.10;;;;;;5115043;28;20048;-69
2023/04/06 09:20:28;;;;;;;3.35;1.98;;;10.60;66.20;;;;;;5114078;28;20487;-69
2023/04/06 09:22:54;;;;;;;3.30;1.88;;;10.60;66.30;;;;;;5114711;28;20040;-70
2023/04/06 09:25:23;;;;;;;3.42;2.15;;;10.70;66.30;;;;;;5115111;28;20044;-69
2023/04/06 09:27:58;;;;;;;3.83;1.98;;;10.80;66.30;;;;;;5114703;28;20058;-69
2023/04/06 09:30:24;;;;;;;3.40;2.00;;;10.90;66.20;;;;;;5115165;28;20475;-69
2023/04/06 09:32:54;;;;;;;3.72;2.08;;;11.00;66.00;;;;;;5095258;28;20040;-69
2023/04/06 09:35:20;;;;;;;3.95;2.40;;;11.00;65.90;;;;;;5114672;28;20070;-70
2023/04/06 09:37:47;;;;;;;4.10;2.25;;;11.00;66.00;;;;;;5114876;28;20106;-69
2023/04/06 09:40:14;;;;;;;4.50;2.35;;;11.00;66.00;;;;;;5114849;28;20059;-69
2023/04/06 09:42:42;;;;;;;4.60;2.35;;;11.10;66.00;;;;;;5115005;28;20039;-69
2023/04/06 09:45:08;;;;;;;4.00;2.22;;;11.20;66.00;;;;;;5114477;28;20082;-69
2023/04/06 09:47:36;;;;;;;4.47;2.58;;;11.30;65.80;;;;;;5114877;28;20126;-69
2023/04/06 09:50:02;;;;;;;4.47;2.40;;;11.40;65.60;;;;;;5114514;28;20050;-69
2023/04/06 09:52:33;;;;;;;4.40;2.22;;;11.50;65.60;;;;;;5114779;28;20114;-69
2023/04/06 09:55:03;;;;;;;4.32;2.60;;;11.50;65.50;;;;;;5115090;28;20513;-69
2023/04/06 09:57:36;;;;;;;3.63;2.17;;;11.50;65.50;;;;;;5114622;28;20126;-70
2023/04/06 10:00:14;;;;;;;3.90;2.00;;;11.40;65.50;;;;;;5114880;28;20479;-69
2023/04/06 10:03:04;;;;;;;4.07;2.20;;;11.50;65.60;;;;;;5114901;28;20051;-70
2023/04/06 10:05:54;;;;;;;5.07;2.70;;;11.50;65.70;;;;;;5114701;28;20252;-69
2023/04/06 10:08:24;;;;;;;4.07;2.22;;;11.40;65.80;;;;;;5095892;28;20043;-69
2023/04/06 10:10:51;;;;;;;4.97;2.88;;;11.50;66.00;;;;;;5113969;28;20048;-70
2023/04/06 10:13:18;;;;;;;5.78;3.22;;;11.50;65.70;;;;;;5113961;28;20055;-69
2023/04/06 10:15:44;;;;;;;5.03;3.10;;;11.40;65.80;;;;;;5113829;28;20138;-68
2023/04/06 10:18:10;;;;;;;5.25;2.90;;;11.30;65.90;;;;;;5114401;28;20075;-69
2023/04/06 10:20:56;;;;;;;4.88;3.00;;;11.30;66.00;;;;;;5113839;28;20135;-69
2023/04/06 10:23:36;;;;;;;4.50;2.53;;;11.30;66.10;;;;;;5113943;28;20054;-69
2023/04/06 10:26:02;;;;;;;4.75;2.63;;;11.30;66.20;;;;;;5113634;28;20136;-70
2023/04/06 10:28:36;;;;;;;5.15;3.13;;;11.30;66.30;;;;;;5094034;28;20048;-70
2023/04/06 10:31:05;;;;;;;5.65;3.13;;;11.30;66.30;;;;;;5094254;28;20040;-69
2023/04/06 10:33:31;;;;;;;4.05;2.55;;;11.20;66.40;;;;;;5113517;28;20100;-69
2023/04/06 10:35:56;;;;;;;5.03;2.63;;;11.10;66.50;;;;;;5095952;28;20032;-69
2023/04/06 10:38:34;;;;;;;5.28;2.40;;;11.20;66.60;;;;;;5113631;28;20406;-69
2023/04/06 10:41:09;;;;;;;5.07;2.42;;;11.30;66.50;;;;;;5113692;28;20048;-69
2023/04/06 10:43:37;;;;;;;4.70;2.70;;;11.20;66.50;;;;;;5113498;28;20039;-70
2023/04/06 10:46:04;;;;;;;4.93;2.60;;;11.20;66.50;;;;;;5113378;28;20047;-70
2023/04/06 10:48:46;;;;;;;3.92;2.35;;;11.20;66.60;;;;;;5113551;28;20063;-70
2023/04/06 10:51:15;;;;;;;4.18;2.58;;;11.20;66.60;;;;;;5078045;28;20413;-69
2023/04/06 10:53:43;;;;;;;4.25;2.63;;;11.30;66.60;;;;;;5113806;28;20507;-69
2023/04/06 10:56:11;;;;;;;4.35;2.33;;;11.40;66.50;;;;;;5113762;28;20043;-69
2023/04/06 10:58:38;;;;;;;4.38;2.22;;;11.50;66.50;;;;;;5113624;28;20058;-70
2023/04/06 11:01:03;;;;;;;4.30;2.47;;;11.70;66.20;;;;;;5113404;28;20126;-70
2023/04/06 11:03:29;;;;;;;4.88;2.88;;;11.80;65.70;;;;;;5113294;28;20177;-69
2023/04/06 11:05:55;;;;;;;4.60;2.60;;;11.80;66.30;;;;;;5093780;28;20168;-70
2023/04/06 11:08:24;;;;;;;4.00;2.47;;;11.80;65.70;;;;;;5113122;28;20040;-69
2023/04/06 11:10:50;;;;;;;4.50;2.58;;;11.70;65.80;;;;;;5095473;28;20528;-70
2023/04/06 11:13:17;;;;;;;4.82;3.10;;;11.70;65.90;;;;;;5113039;28;20027;-70
2023/04/06 11:15:42;;;;;;;5.00;2.78;;;11.80;65.90;;;;;;5113083;28;20490;-69
2023/04/06 11:18:08;;;;;;;4.90;2.65;;;11.70;66.00;;;;;;5113506;28;20097;-69
2023/04/06 11:20:34;;;;;;;3.97;2.75;;;11.80;66.10;;;;;;5113175;28;20092;-70
2023/04/06 11:22:59;;;;;;;5.57;3.30;;;11.80;65.90;;;;;;5094373;28;20048;-70
2023/04/06 11:25:27;;;;;;;5.20;3.17;;;11.80;65.90;;;;;;5093321;28;20040;-69
2023/04/06 11:27:53;;;;;;;4.82;3.03;;;11.80;65.90;;;;;;5113403;28;20122;-69
2023/04/06 11:30:19;;;;;;;4.03;2.55;;;11.90;66.00;;;;;;5113505;28;20494;-70
2023/04/06 11:32:45;;;;;;;4.50;2.70;;;11.90;66.00;;;;;;5093450;28;20044;-69
2023/04/06 11:35:32;;;;;;;4.28;2.70;;;11.80;66.00;;;;;;5093283;28;20047;-70
2023/04/06 11:37:58;;;;;;;4.97;2.80;;;11.80;66.20;;;;;;5110146;28;20035;-70
2023/04/06 11:40:24;;;;;;;5.13;2.88;;;11.80;66.40;;;;;;5112893;28;20129;-70
2023/04/06 11:42:57;;;;;;;4.80;2.80;;;11.60;66.60;;;;;;5112527;28;20040;-70
2023/04/06 11:45:23;;;;;;;3.58;2.42;;;11.50;67.00;;;;;;5112542;28;20070;-70
2023/04/06 11:48:02;;;;;;;4.25;2.42;;;11.40;67.20;;;;;;5094459;28;20477;-70
2023/04/06 11:50:34;;;;;;;3.58;2.03;;;11.30;67.70;;;;;;5109372;28;20038;-70
2023/04/06 11:53:01;;;;;;;4.10;2.40;;;11.20;68.00;;;;;;5109527;28;20129;-70
2023/04/06 11:55:27;;;;;;;3.83;2.33;;;11.20;68.10;;;;;;5112833;28;20040;-68
2023/04/06 11:57:52;;;;;;;5.55;2.80;;;11.20;68.40;;;;;;5112772;28;20038;-70
2023/04/06 12:00:20;;;;;;;5.65;2.60;;;11.10;68.70;;;;;;5093100;28;20483;-68
2023/04/06 12:02:47;;;;;;;3.80;2.03;;;10.90;69.10;;;;;;5092789;28;20044;-70
2023/04/06 12:05:13;;;;;;;3.40;2.05;;;10.90;69.40;;;;;;5112895;28;20085;-70
2023/04/06 12:07:38;;;;;;;3.00;2.10;;;10.80;69.50;;;;;;5112287;28;20040;-69
2023/04/06 12:10:05;;;;;;;2.53;1.70;;;10.80;69.60;;;;;;5112489;28;20074;-70
2023/04/06 12:12:31;;;;;;;3.65;2.05;;;10.80;69.60;;;;;;5112518;28;20440;-68
2023/04/06 12:14:57;;;;;;;3.25;2.03;;;10.70;69.90;;;;;;5112167;28;20540;-68
2023/04/06 12:17:23;;;;;;;3.25;1.77;;;10.60;70.10;;;;;;5112674;28;20042;-68
2023/04/06 12:19:49;;;;;;;3.83;1.95;;;10.60;70.40;;;;;;5112281;28;20043;-68
2023/04/06 12:22:14;;;;;;;5.22;2.80;;;10.50;70.30;;;;;;5112697;28;20420;-70
2023/04/06 12:24:40;;;;;;;4.43;2.60;;;10.30;70.70;;;;;;5112298;28;20035;-70
2023/04/06 12:27:06;;;;;;;5.95;2.53;;;10.20;71.20;;;;;;5093797;28;20062;-70
2023/04/06 12:29:32;;;;;;;3.35;2.05;;;10.10;71.40;;;;;;5112635;28;20529;-70
2023/04/06 12:31:58;;;;;;;2.85;1.80;;;10.00;71.70;;;;;;5093125;28;20040;-70
2023/04/06 12:34:23;;;;;;;3.05;2.00;;;10.00;71.80;;;;;;5112421;28;20038;-70
2023/04/06 12:36:49;;;;;;;2.50;1.65;;;9.90;71.80;;;;;;5112108;28;20035;-70
2023/04/06 12:39:16;;;;;;;2.58;1.58;;;9.90;71.90;;;;;;5093681;28;20047;-70
2023/04/06 12:41:42;;;;;;;2.00;1.33;;;9.90;71.90;;;;;;5111797;28;20051;-70
2023/04/06 12:44:07;;;;;;;2.03;1.20;;;9.90;72.00;;;;;;5112117;28;20104;-70
2023/04/06 12:46:33;;;;;;;2.63;1.38;;;9.80;72.20;;;;;;5111701;28;20040;-69
2023/04/06 12:48:59;;;;;;;2.38;1.38;;;9.80;72.40;;;;;;5111804;28;20147;-69
2023/04/06 12:51:27;;;;;;;1.95;1.33;;;9.70;72.60;;;;;;5111651;28;20571;-69